Time;durP1;ratioP1;P1;durP2;ratioP2;P2;SDS_P1;SDS_P2;PMS_P1;PMS_P2;Temp;Humidity;BMP_temperature;BMP_pressure;BME280_temperature;BME280_humidity;BME280_pressure;Samples;Min_cycle;Max_cycle;Signal;HPM_P1;HPM_P2
2022/09/05 00:01:07;;;;;;;;;;;12.40;99.90;;;;;;5058809;28;19915;-75
2022/09/05 00:03:45;;;;;;;;;;;12.40;99.90;;;;;;5051197;28;19908;-78
2022/09/05 00:06:12;;;;;;;;;;;12.50;99.90;;;;;;5064593;28;19909;-77
2022/09/05 00:08:56;;;;;;;;;;;12.40;99.90;;;;;;5065167;28;19915;-77
2022/09/05 00:11:27;;;;;;;;;;;12.30;99.90;;;;;;5064230;28;19923;-77
2022/09/05 00:14:09;;;;;;;;;;;12.40;99.90;;;;;;5063485;28;21695;-78
2022/09/05 00:17:13;;;;;;;;;;;12.30;99.90;;;;;;5067043;28;20369;-77
2022/09/05 00:19:38;;;;;;;;;;;12.30;99.90;;;;;;5105848;28;20425;-78
2022/09/05 00:22:04;;;;;;;;;;;12.20;99.90;;;;;;5106269;28;20003;-77
2022/09/05 00:24:42;;;;;;;;;;;12.20;99.90;;;;;;5070203;28;19908;-77
2022/09/05 00:27:08;;;;;;;;;;;12.20;99.90;;;;;;5071324;28;19916;-77
2022/09/05 00:29:33;;;;;;;;;;;12.20;99.90;;;;;;5053986;28;19909;-76
2022/09/05 00:32:28;;;;;;;;;;;12.10;99.90;;;;;;5057777;28;19912;-76
2022/09/05 00:34:57;;;;;;;;;;;12.00;99.90;;;;;;5045108;28;19923;-76
2022/09/05 00:37:31;;;;;;;;;;;12.10;99.90;;;;;;5058781;28;19931;-75
2022/09/05 00:40:12;;;;;;;;;;;12.10;99.90;;;;;;5062822;28;19960;-75
2022/09/05 00:42:37;;;;;;;;;;;12.10;99.90;;;;;;5053873;28;19909;-75
2022/09/05 00:45:04;;;;;;;;;;;12.10;99.90;;;;;;5068043;28;19908;-75
2022/09/05 00:47:45;;;;;;;;;;;12.20;99.90;;;;;;5053983;28;20372;-75
2022/09/05 00:50:19;;;;;;;;;;;12.20;99.90;;;;;;5051301;28;20384;-75
2022/09/05 00:52:46;;;;;;;;;;;12.10;99.90;;;;;;5051271;28;19919;-76
2022/09/05 00:55:30;;;;;;;;;;;12.00;99.90;;;;;;5051108;28;19915;-75
2022/09/05 00:58:14;;;;;;;;;;;12.00;99.90;;;;;;5066255;28;20009;-75
2022/09/05 01:00:44;;;;;;;;;;;11.80;99.90;;;;;;5053379;28;19909;-76
2022/09/05 01:03:28;;;;;;;;;;;11.80;99.90;;;;;;5051076;28;19909;-76
2022/09/05 01:05:53;;;;;;;;;;;11.80;99.90;;;;;;5064344;28;19995;-76
2022/09/05 01:08:37;;;;;;;;;;;11.70;99.90;;;;;;5052342;28;20051;-75
2022/09/05 01:11:21;;;;;;;;;;;11.70;99.90;;;;;;5061270;28;19916;-75
2022/09/05 01:13:47;;;;;;;;;;;11.70;99.90;;;;;;5070905;28;19954;-75
2022/09/05 01:16:42;;;;;;;;;;;11.70;99.90;;;;;;5063889;28;19917;-75
2022/09/05 01:19:26;;;;;;;;;;;11.70;99.90;;;;;;5058405;28;19909;-76
2022/09/05 01:22:15;;;;;;;;;;;11.70;99.90;;;;;;5055068;28;20313;-76
2022/09/05 01:24:48;;;;;;;;;;;11.60;99.90;;;;;;5069118;28;19909;-76
2022/09/05 01:27:32;;;;;;;;;;;11.60;99.90;;;;;;5061544;28;19908;-76
2022/09/05 01:30:04;;;;;;;;;;;11.60;99.90;;;;;;5071618;28;19955;-75
2022/09/05 01:32:34;;;;;;;;;;;11.60;99.90;;;;;;5054619;28;19958;-75
2022/09/05 01:35:00;;;;;;;;;;;11.60;99.90;;;;;;5054512;28;19908;-74
2022/09/05 01:37:28;;;;;;;;;;;11.50;99.90;;;;;;5064625;28;19916;-76
2022/09/05 01:40:06;;;;;;;;;;;11.40;99.90;;;;;;5059134;28;19909;-75
2022/09/05 01:42:32;;;;;;;;;;;11.40;99.90;;;;;;5059168;28;19908;-75
2022/09/05 01:45:14;;;;;;;;;;;11.30;99.90;;;;;;5072365;28;19916;-76
2022/09/05 01:47:46;;;;;;;;;;;11.30;99.90;;;;;;5073840;28;20326;-75
2022/09/05 01:50:17;;;;;;;;;;;11.30;99.90;;;;;;5066500;28;19908;-75
2022/09/05 01:53:01;;;;;;;;;;;11.20;99.90;;;;;;5061895;28;19916;-75
2022/09/05 01:55:30;;;;;;;;;;;11.10;99.90;;;;;;5055273;28;20282;-75
2022/09/05 01:58:08;;;;;;;;;;;11.10;99.90;;;;;;5064500;28;19965;-75
2022/09/05 02:00:39;;;;;;;;;;;11.10;99.90;;;;;;5073682;28;20282;-75
2022/09/05 02:03:24;;;;;;;;;;;11.20;99.90;;;;;;5066940;28;19913;-75
2022/09/05 02:05:55;;;;;;;;;;;11.10;99.90;;;;;;5068917;28;19954;-75
2022/09/05 02:08:33;;;;;;;;;;;11.10;99.90;;;;;;5066228;28;19916;-75
2022/09/05 02:11:01;;;;;;;;;;;11.20;99.90;;;;;;5070337;28;20446;-75
2022/09/05 02:13:33;;;;;;;;;;;11.20;99.90;;;;;;5073074;28;19995;-75
2022/09/05 02:15:59;;;;;;;;;;;11.10;99.90;;;;;;5073225;28;20486;-75
2022/09/05 02:18:31;;;;;;;;;;;11.10;99.90;;;;;;5071760;28;20007;-76
2022/09/05 02:21:00;;;;;;;;;;;11.10;99.90;;;;;;5068487;28;19908;-76
2022/09/05 02:23:30;;;;;;;;;;;11.20;99.90;;;;;;5058255;28;20290;-75
2022/09/05 02:26:04;;;;;;;;;;;11.20;99.90;;;;;;5072848;28;20326;-75
2022/09/05 02:28:45;;;;;;;;;;;11.00;99.90;;;;;;5066855;28;20329;-75
2022/09/05 02:31:32;;;;;;;;;;;11.10;99.90;;;;;;5061200;28;20370;-75
2022/09/05 02:33:58;;;;;;;;;;;11.10;99.90;;;;;;5055620;28;19916;-76
2022/09/05 02:36:43;;;;;;;;;;;11.00;99.90;;;;;;5053656;28;19909;-75
2022/09/05 02:39:27;;;;;;;;;;;10.90;99.90;;;;;;5064717;28;20388;-75
2022/09/05 02:41:59;;;;;;;;;;;10.90;99.90;;;;;;5058916;28;20011;-75
2022/09/05 02:44:32;;;;;;;;;;;10.90;99.90;;;;;;5072353;28;20292;-75
2022/09/05 02:47:04;;;;;;;;;;;10.90;99.90;;;;;;5072567;28;19999;-75
2022/09/05 02:49:42;;;;;;;;;;;10.90;99.90;;;;;;5062191;28;19913;-75
2022/09/05 02:52:08;;;;;;;;;;;10.80;99.90;;;;;;5053171;28;19917;-75
2022/09/05 02:54:37;;;;;;;;;;;10.80;99.90;;;;;;5053323;28;19954;-75
2022/09/05 02:57:02;;;;;;;;;;;11.00;99.90;;;;;;5066026;28;19947;-75
2022/09/05 02:59:46;;;;;;;;;;;11.00;99.90;;;;;;5053115;28;20028;-76
2022/09/05 03:02:11;;;;;;;;;;;11.00;99.90;;;;;;5066110;28;19985;-76
2022/09/05 03:04:48;;;;;;;;;;;10.90;99.90;;;;;;5071918;28;20377;-75
2022/09/05 03:07:16;;;;;;;;;;;10.90;99.90;;;;;;5069058;28;19915;-77
2022/09/05 03:10:00;;;;;;;;;;;10.80;99.90;;;;;;5058169;28;20358;-76
2022/09/05 03:12:40;;;;;;;;;;;10.80;99.90;;;;;;5052770;28;19912;-75
2022/09/05 03:15:15;;;;;;;;;;;10.80;99.90;;;;;;5052499;28;19915;-75
2022/09/05 03:17:59;;;;;;;;;;;10.80;99.90;;;;;;5065610;28;20293;-74
2022/09/05 03:20:36;;;;;;;;;;;10.90;99.90;;;;;;5052686;28;19923;-74
2022/09/05 03:23:07;;;;;;;;;;;11.00;99.90;;;;;;5052164;28;19961;-76
2022/09/05 03:25:33;;;;;;;;;;;11.10;99.90;;;;;;5052646;28;19909;-74
2022/09/05 03:28:09;;;;;;;;;;;11.10;99.90;;;;;;5055698;28;19954;-74
2022/09/05 03:30:49;;;;;;;;;;;11.00;99.90;;;;;;5063912;28;19952;-74
2022/09/05 03:33:18;;;;;;;;;;;10.90;99.90;;;;;;5057287;28;19913;-74
2022/09/05 03:36:02;;;;;;;;;;;10.90;99.90;;;;;;5058637;28;20058;-74
2022/09/05 03:38:27;;;;;;;;;;;10.80;99.90;;;;;;5071290;28;19967;-74
2022/09/05 03:40:56;;;;;;;;;;;10.80;99.90;;;;;;5056071;28;20321;-74
2022/09/05 03:43:34;;;;;;;;;;;10.80;99.90;;;;;;5067397;28;19912;-74
2022/09/05 03:45:59;;;;;;;;;;;10.90;99.90;;;;;;5065117;28;19909;-75
2022/09/05 03:48:44;;;;;;;;;;;10.90;99.90;;;;;;5063623;28;19916;-75
2022/09/05 03:51:09;;;;;;;;;;;10.90;99.90;;;;;;5064888;28;19966;-74
2022/09/05 03:53:45;;;;;;;;;;;10.90;99.90;;;;;;5050951;28;19912;-74
2022/09/05 03:56:14;;;;;;;;;;;10.90;99.90;;;;;;5062591;28;19916;-75
2022/09/05 03:58:52;;;;;;;;;;;10.90;99.90;;;;;;5052249;28;19913;-74
2022/09/05 04:01:21;;;;;;;;;;;10.90;99.90;;;;;;5061575;28;20275;-75
2022/09/05 04:03:50;;;;;;;;;;;10.90;99.90;;;;;;5069660;28;19944;-75
2022/09/05 04:06:28;;;;;;;;;;;10.90;99.90;;;;;;5055685;28;19952;-75
2022/09/05 04:09:00;;;;;;;;;;;10.90;99.90;;;;;;5068760;28;20008;-75
2022/09/05 04:11:42;;;;;;;;;;;10.90;99.90;;;;;;5053119;28;19923;-75
2022/09/05 04:14:11;;;;;;;;;;;10.80;99.90;;;;;;5064483;28;20003;-74
2022/09/05 04:16:43;;;;;;;;;;;10.80;99.90;;;;;;5058751;28;19920;-75
2022/09/05 04:19:09;;;;;;;;;;;10.90;99.90;;;;;;5059096;28;20364;-74
2022/09/05 04:21:37;;;;;;;;;;;10.80;99.90;;;;;;5058847;28;19908;-75
2022/09/05 04:24:21;;;;;;;;;;;10.90;99.90;;;;;;5075653;28;20414;-75
2022/09/05 04:26:59;;;;;;;;;;;10.90;99.90;;;;;;5051903;28;19966;-75
2022/09/05 04:29:43;;;;;;;;;;;10.90;99.90;;;;;;5056240;28;19908;-74
2022/09/05 04:32:20;;;;;;;;;;;10.90;99.90;;;;;;5070765;28;19917;-74
2022/09/05 04:34:57;;;;;;;;;;;10.90;99.90;;;;;;5064638;28;20277;-74
2022/09/05 04:37:29;;;;;;;;;;;11.00;99.90;;;;;;5055581;28;19912;-74
2022/09/05 04:39:54;;;;;;;;;;;11.10;99.90;;;;;;5050514;28;19959;-75
2022/09/05 04:42:23;;;;;;;;;;;11.00;99.90;;;;;;5051948;28;19912;-75
2022/09/05 04:44:55;;;;;;;;;;;10.80;99.90;;;;;;5052009;28;19909;-75
2022/09/05 04:47:25;;;;;;;;;;;10.90;99.90;;;;;;5051841;28;19909;-75
2022/09/05 04:49:50;;;;;;;;;;;11.00;99.90;;;;;;5055777;28;20316;-74
2022/09/05 04:52:31;;;;;;;;;;;10.90;99.90;;;;;;5064317;28;19921;-74
2022/09/05 04:54:59;;;;;;;;;;;10.80;99.90;;;;;;5055929;28;19912;-73
2022/09/05 04:57:28;;;;;;;;;;;10.80;99.90;;;;;;5054387;28;20011;-74
2022/09/05 05:00:04;;;;;;;;;;;10.80;99.90;;;;;;5055629;28;19934;-73
2022/09/05 05:02:36;;;;;;;;;;;10.80;99.90;;;;;;5068845;28;19952;-73
2022/09/05 05:05:02;;;;;;;;;;;10.90;99.90;;;;;;5060531;28;19932;-74
2022/09/05 05:07:39;;;;;;;;;;;10.90;99.90;;;;;;5059384;28;20419;-74
2022/09/05 05:10:05;;;;;;;;;;;10.80;99.90;;;;;;5074508;28;19919;-74
2022/09/05 05:12:51;;;;;;;;;;;10.90;99.90;;;;;;5074453;28;19912;-74
2022/09/05 05:15:20;;;;;;;;;;;11.00;99.90;;;;;;5069365;28;19913;-73
2022/09/05 05:17:51;;;;;;;;;;;11.00;99.90;;;;;;5054013;28;19908;-74
2022/09/05 05:20:29;;;;;;;;;;;10.90;99.90;;;;;;5069801;28;20023;-74
2022/09/05 05:23:02;;;;;;;;;;;11.00;99.90;;;;;;5075389;28;19908;-74
2022/09/05 05:25:30;;;;;;;;;;;11.00;99.90;;;;;;5053632;28;20366;-74
2022/09/05 05:27:58;;;;;;;;;;;11.00;99.90;;;;;;5055217;28;19966;-74
2022/09/05 05:30:30;;;;;;;;;;;11.10;99.90;;;;;;5054994;28;20362;-74
2022/09/05 05:32:57;;;;;;;;;;;11.20;99.90;;;;;;5055090;28;19912;-74
2022/09/05 05:35:30;;;;;;;;;;;11.20;99.90;;;;;;5072598;28;19908;-73
2022/09/05 05:38:07;;;;;;;;;;;11.30;99.90;;;;;;5054952;28;19955;-73
2022/09/05 05:40:33;;;;;;;;;;;11.50;99.90;;;;;;5071825;28;20309;-74
2022/09/05 05:43:22;;;;;;;;;;;11.60;99.90;;;;;;5057429;28;19909;-74
2022/09/05 05:45:56;;;;;;;;;;;11.60;99.90;;;;;;5067187;28;20327;-74
2022/09/05 05:48:28;;;;;;;;;;;11.70;99.90;;;;;;5067302;28;19908;-74
2022/09/05 05:51:11;;;;;;;;;;;11.80;99.90;;;;;;5073349;28;19923;-73
2022/09/05 05:53:51;;;;;;;;;;;12.00;99.90;;;;;;5065855;28;20374;-74
2022/09/05 05:56:35;;;;;;;;;;;12.00;99.90;;;;;;5073007;28;19913;-74
2022/09/05 05:59:13;;;;;;;;;;;12.20;99.90;;;;;;5073734;28;19909;-74
2022/09/05 06:01:57;;;;;;;;;;;12.30;99.90;;;;;;5073356;28;19919;-74
2022/09/05 06:04:40;;;;;;;;;;;12.50;99.90;;;;;;5073750;28;19909;-74
2022/09/05 06:07:09;;;;;;;;;;;12.50;99.90;;;;;;5075110;28;20003;-74
2022/09/05 06:09:53;;;;;;;;;;;12.50;99.90;;;;;;5074700;28;19912;-74
2022/09/05 06:12:40;;;;;;;;;;;12.60;99.90;;;;;;5075077;28;19912;-74
2022/09/05 06:15:20;;;;;;;;;;;12.60;99.90;;;;;;5066352;28;19916;-75
2022/09/05 06:17:54;;;;;;;;;;;12.80;99.90;;;;;;5079345;28;20273;-75
2022/09/05 06:20:38;;;;;;;;;;;12.90;99.90;;;;;;5080488;28;19916;-74
2022/09/05 06:23:22;;;;;;;;;;;13.00;99.90;;;;;;5063051;28;19908;-74
2022/09/05 06:26:06;;;;;;;;;;;13.10;99.90;;;;;;5073838;28;19908;-75
2022/09/05 06:28:35;;;;;;;;;;;13.30;99.90;;;;;;5068478;28;20469;-73
2022/09/05 06:31:17;;;;;;;;;;;13.30;99.90;;;;;;5062859;28;19934;-74
2022/09/05 06:33:43;;;;;;;;;;;13.40;99.90;;;;;;5066302;28;20370;-74
2022/09/05 06:36:15;;;;;;;;;;;13.50;99.90;;;;;;5066390;28;19908;-74
2022/09/05 06:38:56;;;;;;;;;;;13.70;99.90;;;;;;5056098;28;19912;-74
2022/09/05 06:41:29;;;;;;;;;;;13.80;99.90;;;;;;5062046;28;19909;-74
2022/09/05 06:44:14;;;;;;;;;;;13.80;99.90;;;;;;5066159;28;19909;-74
2022/09/05 06:46:43;;;;;;;;;;;14.00;99.90;;;;;;5056191;28;19908;-73
2022/09/05 06:49:17;;;;;;;;;;;14.10;99.90;;;;;;5053169;28;20418;-73
2022/09/05 06:52:01;;;;;;;;;;;14.20;99.90;;;;;;5066858;28;19959;-73
2022/09/05 06:54:33;;;;;;;;;;;14.20;99.90;;;;;;5062940;28;19913;-74
2022/09/05 06:57:09;;;;;;;;;;;14.30;99.90;;;;;;5052522;28;19936;-73
2022/09/05 06:59:34;;;;;;;;;;;14.40;99.90;;;;;;5058275;28;19912;-73
2022/09/05 07:02:11;;;;;;;;;;;14.60;99.90;;;;;;5062447;28;20013;-74
2022/09/05 07:04:39;;;;;;;;;;;14.70;99.90;;;;;;5063572;28;20006;-74
2022/09/05 07:07:16;;;;;;;;;;;14.90;99.90;;;;;;5063777;28;19909;-74
2022/09/05 07:09:42;;;;;;;;;;;15.10;99.90;;;;;;5052612;28;19957;-74
2022/09/05 07:12:08;;;;;;;;;;;15.20;99.90;;;;;;5051191;28;20370;-74
2022/09/05 07:14:38;;;;;;;;;;;15.30;99.90;;;;;;5055937;28;19919;-74
2022/09/05 07:17:08;;;;;;;;;;;15.50;99.90;;;;;;5052269;28;20011;-73
2022/09/05 07:19:39;;;;;;;;;;;16.00;99.90;;;;;;5052244;28;20297;-74
2022/09/05 07:22:11;;;;;;;;;;;16.10;99.90;;;;;;5064158;28;19916;-74
2022/09/05 07:24:38;;;;;;;;;;;16.30;99.90;;;;;;5065161;28;20365;-74
2022/09/05 07:27:06;;;;;;;;;;;16.50;99.90;;;;;;5052234;28;19916;-74
2022/09/05 07:29:34;;;;;;;;;;;16.60;99.90;;;;;;5052111;28;19935;-74
2022/09/05 07:32:01;;;;;;;;;;;17.50;99.90;;;;;;5056428;28;19912;-74
2022/09/05 07:34:26;;;;;;;;;;;20.20;99.90;;;;;;5053266;28;19909;-74
2022/09/05 07:36:54;;;;;;;;;;;21.80;99.90;;;;;;5052036;28;20434;-74
2022/09/05 07:39:22;;;;;;;;;;;22.60;99.90;;;;;;5051670;28;19948;-74
2022/09/05 07:41:52;;;;;;;;;;;23.40;99.90;;;;;;5051882;28;19987;-75
2022/09/05 07:44:20;;;;;;;;;;;24.10;99.90;;;;;;5050577;28;20419;-75
2022/09/05 07:46:48;;;;;;;;;;;24.40;99.20;;;;;;5051803;28;19916;-75
2022/09/05 07:49:17;;;;;;;;;;;25.10;97.80;;;;;;5051916;28;19908;-74
2022/09/05 07:51:46;;;;;;;;;;;25.30;97.50;;;;;;5059162;28;20473;-74
2022/09/05 07:54:25;;;;;;;;;;;26.00;93.50;;;;;;5052203;28;19909;-74
2022/09/05 07:56:57;;;;;;;;;;;26.20;92.50;;;;;;5064761;28;19912;-75
2022/09/05 07:59:24;;;;;;;;;;;26.20;92.30;;;;;;5060917;28;20158;-74
2022/09/05 08:01:52;;;;;;;;;;;26.90;90.20;;;;;;5061550;28;19909;-74
2022/09/05 08:04:38;;;;;;;;;;;27.20;88.60;;;;;;5063621;28;19916;-75
2022/09/05 08:07:09;;;;;;;;;;;27.10;89.30;;;;;;5052970;28;19995;-74
2022/09/05 08:09:37;;;;;;;;;;;27.60;83.60;;;;;;5052740;28;19994;-75
2022/09/05 08:12:10;;;;;;;;;;;28.00;81.50;;;;;;5052734;28;20043;-74
2022/09/05 08:14:54;;;;;;;;;;;27.90;79.90;;;;;;5050808;28;19959;-75
2022/09/05 08:17:21;;;;;;;;;;;28.30;79.20;;;;;;5065454;28;19916;-75
2022/09/05 08:19:54;;;;;;;;;;;28.40;76.90;;;;;;5070498;28;19912;-75
2022/09/05 08:22:22;;;;;;;;;;;27.80;76.50;;;;;;5061514;28;19916;-75
2022/09/05 08:25:03;;;;;;;;;;;28.40;79.00;;;;;;5061499;28;20370;-75
2022/09/05 08:27:47;;;;;;;;;;;29.20;77.50;;;;;;5050310;28;19913;-75
2022/09/05 08:30:13;;;;;;;;;;;29.00;74.50;;;;;;5050621;28;19995;-75
2022/09/05 08:32:48;;;;;;;;;;;28.70;74.80;;;;;;5050345;28;19913;-75
2022/09/05 08:35:17;;;;;;;;;;;28.60;76.30;;;;;;5051495;28;19932;-75
2022/09/05 08:37:44;;;;;;;;;;;28.60;75.30;;;;;;5051843;28;20302;-76
2022/09/05 08:40:26;;;;;;;;;;;29.20;76.40;;;;;;5052097;28;19909;-75
2022/09/05 08:43:01;;;;;;;;;;;29.20;72.20;;;;;;5052658;28;19999;-75
2022/09/05 08:45:42;;;;;;;;;;;29.20;77.20;;;;;;5052841;28;20294;-75
2022/09/05 08:48:20;;;;;;;;;;;29.80;72.90;;;;;;5051888;28;19915;-77
2022/09/05 08:50:54;;;;;;;;;;;30.20;73.30;;;;;;5058874;28;19913;-76
2022/09/05 08:53:45;;;;;;;;;;;29.80;70.10;;;;;;5056975;28;20401;-75
2022/09/05 08:56:16;;;;;;;;;;;29.90;70.40;;;;;;5047233;28;19915;-75
2022/09/05 08:58:58;;;;;;;;;;;29.90;69.20;;;;;;5067035;28;19920;-75
2022/09/05 09:01:27;;;;;;;;;;;30.40;69.20;;;;;;5054069;28;19916;-75
2022/09/05 09:03:55;;;;;;;;;;;31.40;68.70;;;;;;5058917;28;19916;-75
2022/09/05 09:06:30;;;;;;;;;;;31.70;65.60;;;;;;5049800;28;20427;-76
2022/09/05 09:08:55;;;;;;;;;;;31.90;65.30;;;;;;5050804;28;19909;-76
2022/09/05 09:11:33;;;;;;;;;;;32.10;64.10;;;;;;5049575;28;19916;-75
2022/09/05 09:14:13;;;;;;;;;;;31.80;62.60;;;;;;5050687;28;20001;-75
2022/09/05 09:16:45;;;;;;;;;;;31.20;67.50;;;;;;5056134;28;19908;-76
2022/09/05 09:19:30;;;;;;;;;;;32.30;62.80;;;;;;5050994;28;19909;-75
2022/09/05 09:21:56;;;;;;;;;;;32.10;60.00;;;;;;5061317;28;20281;-76
2022/09/05 09:24:30;;;;;;;;;;;32.60;60.80;;;;;;5051752;28;19909;-75
2022/09/05 09:27:00;;;;;;;;;;;32.90;62.30;;;;;;5051313;28;19939;-76
2022/09/05 09:29:27;;;;;;;;;;;33.30;58.30;;;;;;5067620;28;19909;-76
2022/09/05 09:31:58;;;;;;;;;;;34.00;59.00;;;;;;5067045;28;19921;-76
2022/09/05 09:34:24;;;;;;;;;;;33.90;57.30;;;;;;5050584;28;19993;-75
2022/09/05 09:37:02;;;;;;;;;;;33.40;56.10;;;;;;5054866;28;20324;-75
2022/09/05 09:39:50;;;;;;;;;;;33.20;58.40;;;;;;5054456;28;20393;-74
2022/09/05 09:42:38;;;;;;;;;;;34.30;55.90;;;;;;5053758;28;19909;-74
2022/09/05 09:45:23;;;;;;;;;;;34.50;53.80;;;;;;5052510;28;19909;-75
2022/09/05 09:48:00;;;;;;;;;;;34.50;55.40;;;;;;5054029;28;19931;-75
2022/09/05 09:50:55;;;;;;;;;;;35.40;54.40;;;;;;5053756;28;20355;-74
2022/09/05 09:53:41;;;;;;;;;;;35.30;53.00;;;;;;5062231;28;20235;-74
2022/09/05 09:56:08;;;;;;;;;;;35.20;49.00;;;;;;5065482;28;19920;-75
2022/09/05 09:58:35;;;;;;;;;;;35.30;52.30;;;;;;5063719;28;20392;-75
2022/09/05 10:01:07;;;;;;;;;;;35.40;52.00;;;;;;5065082;28;19908;-75
2022/09/05 10:03:39;;;;;;;;;;;35.70;51.70;;;;;;5059822;28;19912;-75
2022/09/05 10:06:24;;;;;;;;;;;36.00;49.40;;;;;;5066969;28;19919;-75
2022/09/05 10:08:58;;;;;;;;;;;35.80;50.10;;;;;;5069393;28;19916;-74
2022/09/05 10:11:40;;;;;;;;;;;35.30;49.20;;;;;;5063471;28;19966;-75
2022/09/05 10:14:11;;;;;;;;;;;34.70;49.50;;;;;;5053084;28;19934;-75
2022/09/05 10:16:52;;;;;;;;;;;35.70;49.50;;;;;;5053448;28;19936;-75
2022/09/05 10:19:36;;;;;;;;;;;36.30;49.40;;;;;;5051839;28;20320;-74
2022/09/05 10:22:20;;;;;;;;;;;36.50;47.60;;;;;;5053000;28;19919;-75
2022/09/05 10:24:57;;;;;;;;;;;36.40;46.40;;;;;;5052386;28;20024;-74
2022/09/05 10:27:28;;;;;;;;;;;35.00;48.10;;;;;;5066544;28;20395;-75
2022/09/05 10:30:05;;;;;;;;;;;34.80;49.00;;;;;;5072301;28;20453;-75
2022/09/05 10:32:42;;;;;;;;;;;35.90;47.80;;;;;;5070694;28;19920;-75
2022/09/05 10:35:15;;;;;;;;;;;37.20;47.20;;;;;;5057648;28;19999;-75
2022/09/05 10:37:43;;;;;;;;;;;37.60;44.20;;;;;;5064080;28;20440;-74
2022/09/05 10:40:10;;;;;;;;;;;37.20;46.00;;;;;;5054721;28;19916;-74
2022/09/05 10:42:46;;;;;;;;;;;36.80;46.30;;;;;;5062154;28;19909;-75
2022/09/05 10:45:14;;;;;;;;;;;36.40;44.10;;;;;;5052422;28;20003;-75
2022/09/05 10:47:47;;;;;;;;;;;37.30;45.90;;;;;;5060715;28;20416;-74
2022/09/05 10:50:15;;;;;;;;;;;36.60;47.00;;;;;;5072103;28;19912;-75
2022/09/05 10:52:49;;;;;;;;;;;37.20;46.20;;;;;;5070627;28;19913;-74
2022/09/05 10:55:21;;;;;;;;;;;37.60;44.10;;;;;;5071308;28;19951;-75
2022/09/05 10:58:03;;;;;;;;;;;37.80;43.50;;;;;;5063421;28;19916;-75
2022/09/05 11:00:52;;;;;;;;;;;37.00;44.20;;;;;;5060710;28;19912;-74
2022/09/05 11:03:21;;;;;;;;;;;31.90;53.90;;;;;;5057084;28;19978;-74
2022/09/05 11:06:12;;;;;;;;;;;29.90;56.40;;;;;;5050582;28;19923;-74
2022/09/05 11:08:48;;;;;;;;;;;33.50;54.30;;;;;;5057622;28;19954;-74
2022/09/05 11:11:16;;;;;;;;;;;33.00;50.00;;;;;;5062703;28;20013;-74
2022/09/05 11:13:46;;;;;;;;;;;36.00;46.40;;;;;;5051977;28;19916;-75
2022/09/05 11:16:19;;;;;;;;;;;37.50;44.60;;;;;;5052297;28;19920;-74
2022/09/05 11:18:49;;;;;;;;;;;37.00;43.80;;;;;;5052983;28;19916;-75
2022/09/05 11:21:25;;;;;;;;;;;37.50;42.20;;;;;;5064738;28;19908;-74
2022/09/05 11:24:13;;;;;;;;;;;36.50;45.30;;;;;;5055202;28;19909;-75
2022/09/05 11:26:52;;;;;;;;;;;38.10;42.60;;;;;;5052032;28;19917;-74
2022/09/05 11:29:23;;;;;;;;;;;36.90;43.70;;;;;;5052454;28;19909;-74
2022/09/05 11:31:58;;;;;;;;;;;39.30;40.40;;;;;;5052161;28;19912;-74
2022/09/05 11:34:42;;;;;;;;;;;37.80;40.40;;;;;;5057518;28;19909;-74
2022/09/05 11:37:16;;;;;;;;;;;37.50;42.30;;;;;;5052949;28;21118;-75
2022/09/05 11:39:41;;;;;;;;;;;38.40;42.40;;;;;;5054929;28;19983;-75
2022/09/05 11:42:25;;;;;;;;;;;39.40;38.40;;;;;;5052265;28;20279;-75
2022/09/05 11:45:01;;;;;;;;;;;39.20;36.60;;;;;;5051866;28;19909;-74
2022/09/05 11:47:39;;;;;;;;;;;34.30;45.70;;;;;;5052142;28;19924;-74
2022/09/05 11:50:25;;;;;;;;;;;32.60;47.40;;;;;;5064822;28;19999;-74
2022/09/05 11:53:00;;;;;;;;;;;31.10;53.00;;;;;;5055103;28;20030;-74
2022/09/05 11:55:25;;;;;;;;;;;30.00;51.90;;;;;;5059070;28;20283;-74
2022/09/05 11:58:06;;;;;;;;;;;29.30;53.70;;;;;;5060937;28;19913;-74
2022/09/05 12:00:52;;;;;;;;;;;33.20;48.50;;;;;;5056381;28;19908;-75
2022/09/05 12:03:37;;;;;;;;;;;33.40;45.80;;;;;;5081235;28;19920;-74
2022/09/05 12:06:07;;;;;;;;;;;30.20;53.10;;;;;;5065767;28;19920;-74
2022/09/05 12:08:36;;;;;;;;;;;28.80;55.00;;;;;;5057987;28;19908;-74
2022/09/05 12:11:07;;;;;;;;;;;28.20;57.70;;;;;;5053250;28;20328;-74
2022/09/05 12:13:36;;;;;;;;;;;28.10;58.00;;;;;;5064785;28;19908;-74
2022/09/05 12:16:16;;;;;;;;;;;27.50;57.40;;;;;;5072729;28;19908;-74
2022/09/05 12:18:41;;;;;;;;;;;26.90;60.40;;;;;;5072616;28;19993;-74
2022/09/05 12:21:23;;;;;;;;;;;26.40;69.60;;;;;;5070718;28;19912;-74
2022/09/05 12:24:13;;;;;;;;;;;26.30;67.70;;;;;;5070808;28;20374;-74
2022/09/05 12:26:45;;;;;;;;;;;26.00;64.20;;;;;;5066926;28;19909;-74
2022/09/05 12:29:17;;;;;;;;;;;26.00;65.40;;;;;;5052725;28;19913;-74
2022/09/05 12:31:45;;;;;;;;;;;25.80;66.30;;;;;;5063684;28;19920;-74
2022/09/05 12:34:12;;;;;;;;;;;26.00;71.90;;;;;;5071963;28;19931;-74
2022/09/05 12:36:37;;;;;;;;;;;26.20;67.90;;;;;;5072822;28;20327;-74
2022/09/05 12:39:08;;;;;;;;;;;26.60;67.40;;;;;;5072297;28;19962;-74
2022/09/05 12:41:43;;;;;;;;;;;26.50;69.70;;;;;;5072084;28;20348;-74
2022/09/05 12:44:19;;;;;;;;;;;26.70;70.60;;;;;;5070849;28;20255;-74
2022/09/05 12:46:49;;;;;;;;;;;26.50;66.10;;;;;;5070281;28;19909;-74
2022/09/05 12:49:26;;;;;;;;;;;26.30;67.90;;;;;;5069151;28;19909;-73
2022/09/05 12:52:01;;;;;;;;;;;26.00;67.20;;;;;;5069890;28;19920;-73
2022/09/05 12:54:32;;;;;;;;;;;26.30;66.50;;;;;;5063004;28;19913;-74
2022/09/05 12:57:16;;;;;;;;;;;26.10;67.30;;;;;;5059069;28;19991;-74
2022/09/05 12:59:43;;;;;;;;;;;25.90;68.70;;;;;;5063611;28;19916;-74
2022/09/05 13:02:14;;;;;;;;;;;26.10;68.40;;;;;;5062925;28;20008;-74
2022/09/05 13:04:43;;;;;;;;;;;26.00;67.20;;;;;;5050451;28;19912;-74
2022/09/05 13:07:17;;;;;;;;;;;26.10;66.10;;;;;;5050555;28;19944;-74
2022/09/05 13:09:45;;;;;;;;;;;26.00;65.00;;;;;;5053262;28;19956;-74
2022/09/05 13:12:18;;;;;;;;;;;26.10;66.10;;;;;;5065156;28;19963;-73
2022/09/05 13:15:04;;;;;;;;;;;26.30;66.00;;;;;;5053939;28;19909;-74
2022/09/05 13:17:49;;;;;;;;;;;26.30;63.80;;;;;;5054551;28;20385;-74
2022/09/05 13:20:14;;;;;;;;;;;26.30;63.10;;;;;;5069071;28;20358;-74
2022/09/05 13:22:42;;;;;;;;;;;26.20;63.40;;;;;;5073536;28;19927;-74
2022/09/05 13:25:12;;;;;;;;;;;26.10;65.10;;;;;;5073507;28;19948;-74
2022/09/05 13:27:42;;;;;;;;;;;26.10;63.10;;;;;;5073602;28;19912;-74
2022/09/05 13:30:09;;;;;;;;;;;26.20;61.70;;;;;;5073815;28;19920;-74
2022/09/05 13:32:46;;;;;;;;;;;26.20;65.10;;;;;;5074784;28;19916;-74
2022/09/05 13:35:35;;;;;;;;;;;26.20;65.50;;;;;;5069098;28;19952;-74
2022/09/05 13:38:26;;;;;;;;;;;26.10;67.00;;;;;;5068449;28;19939;-74
2022/09/05 13:40:58;;;;;;;;;;;26.20;63.70;;;;;;5060123;28;19912;-74
2022/09/05 13:43:37;;;;;;;;;;;26.30;62.40;;;;;;5066636;28;20275;-74
2022/09/05 13:46:09;;;;;;;;;;;26.30;67.00;;;;;;5055803;28;19909;-74
2022/09/05 13:48:36;;;;;;;;;;;26.30;64.80;;;;;;5054366;28;19909;-74
2022/09/05 13:51:10;;;;;;;;;;;26.20;64.60;;;;;;5055195;28;19916;-74
2022/09/05 13:53:45;;;;;;;;;;;26.30;66.20;;;;;;5053322;28;19991;-74
2022/09/05 13:56:22;;;;;;;;;;;26.30;66.40;;;;;;5054567;28;20012;-74
2022/09/05 13:58:52;;;;;;;;;;;26.40;65.60;;;;;;5060230;28;19913;-74
2022/09/05 14:01:36;;;;;;;;;;;26.40;63.80;;;;;;5066894;28;20337;-74
2022/09/05 14:04:04;;;;;;;;;;;26.40;63.80;;;;;;5065721;28;20367;-74
2022/09/05 14:06:30;;;;;;;;;;;26.50;63.90;;;;;;5056741;28;19935;-74
2022/09/05 14:09:03;;;;;;;;;;;26.40;63.80;;;;;;5072814;28;19908;-74
2022/09/05 14:11:48;;;;;;;;;;;26.60;62.90;;;;;;5058809;28;19972;-74
2022/09/05 14:14:19;;;;;;;;;;;26.50;63.00;;;;;;5069650;28;19908;-74
2022/09/05 14:16:46;;;;;;;;;;;26.50;63.00;;;;;;5074374;28;20013;-74
2022/09/05 14:22:01;;;;;;;;;;;26.60;62.50;;;;;;5074270;28;20306;-74
2022/09/05 14:24:32;;;;;;;;;;;27.10;61.60;;;;;;5072917;28;19920;-74
2022/09/05 14:26:57;;;;;;;;;;;29.80;56.50;;;;;;5074188;28;19919;-75
2022/09/05 14:29:23;;;;;;;;;;;33.20;52.10;;;;;;5073091;28;19995;-75
2022/09/05 14:32:08;;;;;;;;;;;34.60;46.90;;;;;;5071984;28;20433;-74
2022/09/05 14:34:39;;;;;;;;;;;34.40;44.90;;;;;;5060503;28;19916;-75
2022/09/05 14:37:37;;;;;;;;;;;34.70;46.00;;;;;;5062660;28;19995;-75
2022/09/05 14:40:08;;;;;;;;;;;34.80;45.00;;;;;;5065981;28;19909;-74
2022/09/05 14:42:52;;;;;;;;;;;34.80;44.20;;;;;;5053574;28;20218;-74
2022/09/05 14:45:24;;;;;;;;;;;35.30;44.60;;;;;;5066917;28;19908;-74
2022/09/05 14:47:58;;;;;;;;;;;34.80;43.20;;;;;;5071997;28;19908;-74
2022/09/05 14:50:41;;;;;;;;;;;35.20;43.20;;;;;;5072104;28;20216;-74
2022/09/05 14:53:13;;;;;;;;;;;35.50;42.30;;;;;;5071423;28;19912;-75
2022/09/05 14:55:50;;;;;;;;;;;35.00;43.20;;;;;;5070682;28;19908;-74
2022/09/05 14:58:19;;;;;;;;;;;35.70;44.60;;;;;;5067462;28;19908;-74
2022/09/05 15:00:55;;;;;;;;;;;34.90;45.30;;;;;;5063721;28;19909;-74